Pagina principale
METAR-TAF:

METAR-TAF

Aeroporti :

Aeroporto Internazionale di Pago Pago

Pago Pago, Isole minori esterne degli Stati Uniti

latitudine: 14-20S, longitudine: 170-43W, altezza: 3 m

Osservazione

Il bollettino è stato emesso 41 minuti fa, alle 05:00 UTC
Vento 9 kt da sud-est
Temperature 28°C
Umidità 74%
Pressione 1013 hPa
Visibilità: 19.3 km
Nubi sparse ad un'altezza di 2200 ft
Nubi sparse ad un'altezza di 4500 ft

METAR: NSTU 180500Z 14009KT 12SM SCT022 SCT045 28/23 A2990 RMK SLP127 T02760230

Ora: 18:41 (05:41 UTC)

Previsione

Il bollettino è stato emesso 6 ore e 12 minuti fa, alle 23:29 UTC
Previsione valida dal 18 alle 00 UTC al 18 alle 24 UTC
Vento 12 kt da sud/sud-est
Visibilità: 10 km
Nubi sparse ad un'altezza di 1500 ft
Nuvoloso ad un'altezza di 4000 ft

TAF: NSTU 172329Z 1800/1824 15012KT P6SM SCT015 BKN040

Osservazioni e previsioni meteorologiche di più di 4000 aeroporti (messaggi METAR e TAF).

Le stazioni disponibili sono rappresentate dai dischi gialli e rossi sulla carta.

Puntare il mouse per vedere il nome della stazione.

Clicca sopra per visualizzare le osservazioni e previsioni meteorologiche.

Per cambiare la mappa : fare clic sui pulsanti verdi con una croce nera per ingrandire, il pulsante verde con un trattino per diminuire, o sulla freccia verde per le mappe adiacenti.


METAR-TAF: